sensor_id;sensor_type;location;lat;lon;timestamp;temperature;humidity
4183;DHT22;2105;52.300;9.182;2022-12-18T00:01:33;-2.10;99.90
4183;DHT22;2105;52.300;9.182;2022-12-18T00:04:01;-2.20;99.90
4183;DHT22;2105;52.300;9.182;2022-12-18T00:06:32;-2.20;99.90
4183;DHT22;2105;52.300;9.182;2022-12-18T00:09:00;-2.30;99.90
4183;DHT22;2105;52.300;9.182;2022-12-18T00:11:31;-2.50;99.90
4183;DHT22;2105;52.300;9.182;2022-12-18T00:13:59;-2.60;99.90
4183;DHT22;2105;52.300;9.182;2022-12-18T00:16:27;-2.50;99.90
4183;DHT22;2105;52.300;9.182;2022-12-18T00:18:56;-2.40;99.90
4183;DHT22;2105;52.300;9.182;2022-12-18T00:21:23;-2.30;99.90
4183;DHT22;2105;52.300;9.182;2022-12-18T00:23:50;-2.40;99.90
4183;DHT22;2105;52.300;9.182;2022-12-18T00:26:22;-2.70;99.90
4183;DHT22;2105;52.300;9.182;2022-12-18T00:28:51;-3.00;99.90
4183;DHT22;2105;52.300;9.182;2022-12-18T00:31:20;-3.20;1.00
4183;DHT22;2105;52.300;9.182;2022-12-18T00:33:47;-3.30;1.00
4183;DHT22;2105;52.300;9.182;2022-12-18T00:36:15;-3.30;1.00
4183;DHT22;2105;52.300;9.182;2022-12-18T00:38:43;-3.40;1.00
4183;DHT22;2105;52.300;9.182;2022-12-18T00:41:12;-3.30;1.00
4183;DHT22;2105;52.300;9.182;2022-12-18T00:43:39;-3.40;1.00
4183;DHT22;2105;52.300;9.182;2022-12-18T00:46:06;-3.60;1.00
4183;DHT22;2105;52.300;9.182;2022-12-18T00:48:33;-3.50;1.00
4183;DHT22;2105;52.300;9.182;2022-12-18T00:51:00;-3.40;5.90
4183;DHT22;2105;52.300;9.182;2022-12-18T00:53:27;-3.60;1.00
4183;DHT22;2105;52.300;9.182;2022-12-18T00:55:53;-3.70;1.00
4183;DHT22;2105;52.300;9.182;2022-12-18T00:58:20;-3.80;58.20
4183;DHT22;2105;52.300;9.182;2022-12-18T01:00:47;-3.50;60.00
4183;DHT22;2105;52.300;9.182;2022-12-18T01:03:15;-3.50;1.00
4183;DHT22;2105;52.300;9.182;2022-12-18T01:05:42;-3.60;1.00
4183;DHT22;2105;52.300;9.182;2022-12-18T01:08:09;-3.60;1.00
4183;DHT22;2105;52.300;9.182;2022-12-18T01:10:35;-3.50;1.00
4183;DHT22;2105;52.300;9.182;2022-12-18T01:13:02;-3.20;1.00
4183;DHT22;2105;52.300;9.182;2022-12-18T01:15:29;-2.90;1.00
4183;DHT22;2105;52.300;9.182;2022-12-18T01:17:56;-2.80;1.00
4183;DHT22;2105;52.300;9.182;2022-12-18T01:20:24;-2.70;1.00
4183;DHT22;2105;52.300;9.182;2022-12-18T01:22:51;-2.60;1.00
4183;DHT22;2105;52.300;9.182;2022-12-18T01:25:17;-2.40;99.90
4183;DHT22;2105;52.300;9.182;2022-12-18T01:27:44;-2.40;99.90
4183;DHT22;2105;52.300;9.182;2022-12-18T01:30:11;-2.40;99.90
4183;DHT22;2105;52.300;9.182;2022-12-18T01:32:38;-2.40;99.90
4183;DHT22;2105;52.300;9.182;2022-12-18T01:35:06;-2.30;99.90
4183;DHT22;2105;52.300;9.182;2022-12-18T01:37:34;-2.30;99.90
4183;DHT22;2105;52.300;9.182;2022-12-18T01:40:01;-2.30;99.90
4183;DHT22;2105;52.300;9.182;2022-12-18T01:42:28;-2.30;99.90
4183;DHT22;2105;52.300;9.182;2022-12-18T01:45:01;-2.30;99.90
4183;DHT22;2105;52.300;9.182;2022-12-18T01:47:33;-2.30;1.00
4183;DHT22;2105;52.300;9.182;2022-12-18T01:50:04;-2.30;1.00
4183;DHT22;2105;52.300;9.182;2022-12-18T01:52:34;-2.30;1.00
4183;DHT22;2105;52.300;9.182;2022-12-18T01:55:03;-2.20;1.00
4183;DHT22;2105;52.300;9.182;2022-12-18T01:57:30;-2.20;99.90
4183;DHT22;2105;52.300;9.182;2022-12-18T02:00:00;-2.20;99.90
4183;DHT22;2105;52.300;9.182;2022-12-18T02:02:28;-2.30;99.90
4183;DHT22;2105;52.300;9.182;2022-12-18T02:04:55;-2.30;99.90
4183;DHT22;2105;52.300;9.182;2022-12-18T02:07:29;-2.20;99.90
4183;DHT22;2105;52.300;9.182;2022-12-18T02:10:02;-2.30;1.00
4183;DHT22;2105;52.300;9.182;2022-12-18T02:12:37;-2.30;1.00
4183;DHT22;2105;52.300;9.182;2022-12-18T02:15:11;-2.40;1.00
4183;DHT22;2105;52.300;9.182;2022-12-18T02:17:43;-2.30;1.00
4183;DHT22;2105;52.300;9.182;2022-12-18T02:20:16;-2.30;1.00
4183;DHT22;2105;52.300;9.182;2022-12-18T02:26:05;-2.20;1.00
4183;DHT22;2105;52.300;9.182;2022-12-18T02:28:35;-2.20;1.00
4183;DHT22;2105;52.300;9.182;2022-12-18T02:31:05;-2.20;1.00
4183;DHT22;2105;52.300;9.182;2022-12-18T02:33:33;-2.20;1.00
4183;DHT22;2105;52.300;9.182;2022-12-18T02:36:01;-2.20;1.00
4183;DHT22;2105;52.300;9.182;2022-12-18T02:38:29;-2.20;1.00
4183;DHT22;2105;52.300;9.182;2022-12-18T02:40:59;-2.20;1.00
4183;DHT22;2105;52.300;9.182;2022-12-18T02:43:26;-2.20;1.00
4183;DHT22;2105;52.300;9.182;2022-12-18T02:45:56;-2.20;1.00
4183;DHT22;2105;52.300;9.182;2022-12-18T02:48:26;-2.20;1.00
4183;DHT22;2105;52.300;9.182;2022-12-18T02:50:59;-2.20;1.00
4183;DHT22;2105;52.300;9.182;2022-12-18T02:53:35;-2.20;1.00
4183;DHT22;2105;52.300;9.182;2022-12-18T02:56:09;-2.20;1.00
4183;DHT22;2105;52.300;9.182;2022-12-18T02:58:42;-2.10;1.00
4183;DHT22;2105;52.300;9.182;2022-12-18T03:01:16;-2.10;1.00
4183;DHT22;2105;52.300;9.182;2022-12-18T03:03:48;-2.00;1.00
4183;DHT22;2105;52.300;9.182;2022-12-18T03:06:22;-2.10;1.00
4183;DHT22;2105;52.300;9.182;2022-12-18T03:08:54;-2.10;1.00
4183;DHT22;2105;52.300;9.182;2022-12-18T03:11:26;-2.10;1.00
4183;DHT22;2105;52.300;9.182;2022-12-18T03:14:09;-2.10;1.00
4183;DHT22;2105;52.300;9.182;2022-12-18T03:16:36;-2.10;1.00
4183;DHT22;2105;52.300;9.182;2022-12-18T03:19:08;-2.10;1.00
4183;DHT22;2105;52.300;9.182;2022-12-18T03:21:40;-2.10;1.00
4183;DHT22;2105;52.300;9.182;2022-12-18T03:24:09;-2.00;1.00
4183;DHT22;2105;52.300;9.182;2022-12-18T03:26:41;-2.00;1.00
4183;DHT22;2105;52.300;9.182;2022-12-18T03:29:12;-1.90;1.00
4183;DHT22;2105;52.300;9.182;2022-12-18T03:31:41;-1.90;1.00
4183;DHT22;2105;52.300;9.182;2022-12-18T03:34:13;-1.90;1.00
4183;DHT22;2105;52.300;9.182;2022-12-18T03:36:42;-1.80;1.00
4183;DHT22;2105;52.300;9.182;2022-12-18T03:39:09;-2.10;99.90
4183;DHT22;2105;52.300;9.182;2022-12-18T03:41:47;-2.40;99.90
4183;DHT22;2105;52.300;9.182;2022-12-18T03:44:21;-2.80;99.90
4183;DHT22;2105;52.300;9.182;2022-12-18T03:46:56;-2.80;1.00
4183;DHT22;2105;52.300;9.182;2022-12-18T03:49:27;-3.20;99.90
4183;DHT22;2105;52.300;9.182;2022-12-18T03:52:02;-3.30;1.00
4183;DHT22;2105;52.300;9.182;2022-12-18T03:54:31;-3.30;1.00
4183;DHT22;2105;52.300;9.182;2022-12-18T03:57:04;-3.40;1.00
4183;DHT22;2105;52.300;9.182;2022-12-18T03:59:33;-3.50;1.00
4183;DHT22;2105;52.300;9.182;2022-12-18T04:02:01;-3.60;1.00
4183;DHT22;2105;52.300;9.182;2022-12-18T04:04:30;-3.60;99.90
4183;DHT22;2105;52.300;9.182;2022-12-18T04:06:58;-3.40;99.90
4183;DHT22;2105;52.300;9.182;2022-12-18T04:09:26;-3.10;99.90
4183;DHT22;2105;52.300;9.182;2022-12-18T04:11:53;-2.90;99.90
4183;DHT22;2105;52.300;9.182;2022-12-18T04:14:21;-2.60;99.90
4183;DHT22;2105;52.300;9.182;2022-12-18T04:16:48;-2.50;1.00
4183;DHT22;2105;52.300;9.182;2022-12-18T04:19:15;-2.60;1.00
4183;DHT22;2105;52.300;9.182;2022-12-18T04:21:41;-2.60;60.20
4183;DHT22;2105;52.300;9.182;2022-12-18T04:24:08;-2.50;99.90
4183;DHT22;2105;52.300;9.182;2022-12-18T04:26:35;-2.30;96.40
4183;DHT22;2105;52.300;9.182;2022-12-18T04:29:02;-2.30;69.70
4183;DHT22;2105;52.300;9.182;2022-12-18T04:31:30;-2.20;37.70
4183;DHT22;2105;52.300;9.182;2022-12-18T04:33:57;-2.20;37.60
4183;DHT22;2105;52.300;9.182;2022-12-18T04:36:23;-2.10;1.00
4183;DHT22;2105;52.300;9.182;2022-12-18T04:38:50;-2.00;1.00
4183;DHT22;2105;52.300;9.182;2022-12-18T04:41:17;-2.00;1.00
4183;DHT22;2105;52.300;9.182;2022-12-18T04:43:44;-2.00;1.00
4183;DHT22;2105;52.300;9.182;2022-12-18T04:46:10;-2.20;1.00
4183;DHT22;2105;52.300;9.182;2022-12-18T04:48:38;-2.20;1.00
4183;DHT22;2105;52.300;9.182;2022-12-18T04:51:06;-2.20;1.00
4183;DHT22;2105;52.300;9.182;2022-12-18T04:53:33;-2.10;1.00
4183;DHT22;2105;52.300;9.182;2022-12-18T04:56:05;-2.10;1.00
4183;DHT22;2105;52.300;9.182;2022-12-18T04:58:31;-2.10;1.00
4183;DHT22;2105;52.300;9.182;2022-12-18T05:00:58;-2.00;1.00
4183;DHT22;2105;52.300;9.182;2022-12-18T05:03:25;-2.10;1.00
4183;DHT22;2105;52.300;9.182;2022-12-18T05:05:53;-2.20;1.00
4183;DHT22;2105;52.300;9.182;2022-12-18T05:08:20;-2.30;1.00
4183;DHT22;2105;52.300;9.182;2022-12-18T05:10:47;-2.50;1.00
4183;DHT22;2105;52.300;9.182;2022-12-18T05:13:13;-2.50;1.00
4183;DHT22;2105;52.300;9.182;2022-12-18T05:15:40;-2.50;1.00
4183;DHT22;2105;52.300;9.182;2022-12-18T05:18:08;-2.50;1.00
4183;DHT22;2105;52.300;9.182;2022-12-18T05:20:34;-2.50;1.00
4183;DHT22;2105;52.300;9.182;2022-12-18T05:23:02;-2.60;1.00
4183;DHT22;2105;52.300;9.182;2022-12-18T05:25:29;-2.60;1.00
4183;DHT22;2105;52.300;9.182;2022-12-18T05:27:56;-2.60;1.00
4183;DHT22;2105;52.300;9.182;2022-12-18T05:30:23;-2.70;1.00
4183;DHT22;2105;52.300;9.182;2022-12-18T05:32:49;-2.70;1.00
4183;DHT22;2105;52.300;9.182;2022-12-18T05:35:16;-2.60;98.70
4183;DHT22;2105;52.300;9.182;2022-12-18T05:37:43;-2.60;1.00
4183;DHT22;2105;52.300;9.182;2022-12-18T05:40:12;-2.70;1.00
4183;DHT22;2105;52.300;9.182;2022-12-18T05:42:39;-2.80;1.00
4183;DHT22;2105;52.300;9.182;2022-12-18T05:45:06;-2.90;70.90
4183;DHT22;2105;52.300;9.182;2022-12-18T05:47:33;-2.90;44.40
4183;DHT22;2105;52.300;9.182;2022-12-18T05:50:00;-3.10;99.90
4183;DHT22;2105;52.300;9.182;2022-12-18T05:52:27;-3.10;99.90
4183;DHT22;2105;52.300;9.182;2022-12-18T05:54:53;-3.10;99.90
4183;DHT22;2105;52.300;9.182;2022-12-18T05:57:21;-3.10;99.90
4183;DHT22;2105;52.300;9.182;2022-12-18T05:59:48;-3.10;99.90
4183;DHT22;2105;52.300;9.182;2022-12-18T06:02:15;-2.90;1.00
4183;DHT22;2105;52.300;9.182;2022-12-18T06:04:41;-2.80;1.00
4183;DHT22;2105;52.300;9.182;2022-12-18T06:07:08;-2.80;1.00
4183;DHT22;2105;52.300;9.182;2022-12-18T06:09:35;-2.80;1.00
4183;DHT22;2105;52.300;9.182;2022-12-18T06:12:02;-2.70;1.00
4183;DHT22;2105;52.300;9.182;2022-12-18T06:14:30;-2.50;1.00
4183;DHT22;2105;52.300;9.182;2022-12-18T06:16:56;-2.40;1.00
4183;DHT22;2105;52.300;9.182;2022-12-18T06:19:23;-2.40;99.90
4183;DHT22;2105;52.300;9.182;2022-12-18T06:21:50;-2.40;99.90
4183;DHT22;2105;52.300;9.182;2022-12-18T06:24:17;-2.30;99.90
4183;DHT22;2105;52.300;9.182;2022-12-18T06:26:43;-2.30;99.90
4183;DHT22;2105;52.300;9.182;2022-12-18T06:29:10;-2.20;99.90
4183;DHT22;2105;52.300;9.182;2022-12-18T06:31:39;-2.20;99.90
4183;DHT22;2105;52.300;9.182;2022-12-18T06:34:05;-2.20;99.90
4183;DHT22;2105;52.300;9.182;2022-12-18T06:36:32;-2.20;99.90
4183;DHT22;2105;52.300;9.182;2022-12-18T06:38:59;-2.10;70.40
4183;DHT22;2105;52.300;9.182;2022-12-18T06:41:26;-2.10;1.00
4183;DHT22;2105;52.300;9.182;2022-12-18T06:43:53;-2.10;1.00
4183;DHT22;2105;52.300;9.182;2022-12-18T06:46:20;-2.10;1.00
4183;DHT22;2105;52.300;9.182;2022-12-18T06:48:48;-2.10;1.00
4183;DHT22;2105;52.300;9.182;2022-12-18T06:51:17;-2.00;1.00
4183;DHT22;2105;52.300;9.182;2022-12-18T06:53:45;-2.00;1.00
4183;DHT22;2105;52.300;9.182;2022-12-18T06:56:11;-1.90;1.00
4183;DHT22;2105;52.300;9.182;2022-12-18T06:58:38;-1.90;1.00
4183;DHT22;2105;52.300;9.182;2022-12-18T07:01:06;-1.90;1.00
4183;DHT22;2105;52.300;9.182;2022-12-18T07:03:34;-1.90;1.00
4183;DHT22;2105;52.300;9.182;2022-12-18T07:06:02;-1.80;1.00
4183;DHT22;2105;52.300;9.182;2022-12-18T07:08:29;-1.80;1.00
4183;DHT22;2105;52.300;9.182;2022-12-18T07:10:56;-1.70;1.00
4183;DHT22;2105;52.300;9.182;2022-12-18T07:13:23;-1.70;1.00
4183;DHT22;2105;52.300;9.182;2022-12-18T07:15:50;-1.70;1.00
4183;DHT22;2105;52.300;9.182;2022-12-18T07:18:17;-1.70;99.90
4183;DHT22;2105;52.300;9.182;2022-12-18T07:20:43;-1.80;1.00
4183;DHT22;2105;52.300;9.182;2022-12-18T07:23:11;-1.90;1.00
4183;DHT22;2105;52.300;9.182;2022-12-18T07:25:38;-1.90;1.00
4183;DHT22;2105;52.300;9.182;2022-12-18T07:28:05;-2.00;1.00
4183;DHT22;2105;52.300;9.182;2022-12-18T07:30:32;-2.00;1.00
4183;DHT22;2105;52.300;9.182;2022-12-18T07:32:59;-1.90;1.00
4183;DHT22;2105;52.300;9.182;2022-12-18T07:35:26;-1.90;1.00
4183;DHT22;2105;52.300;9.182;2022-12-18T07:37:52;-1.90;1.00
4183;DHT22;2105;52.300;9.182;2022-12-18T07:40:21;-1.90;99.90
4183;DHT22;2105;52.300;9.182;2022-12-18T07:42:47;-1.90;1.00
4183;DHT22;2105;52.300;9.182;2022-12-18T07:45:14;-1.90;1.00
4183;DHT22;2105;52.300;9.182;2022-12-18T07:47:41;-1.90;1.00
4183;DHT22;2105;52.300;9.182;2022-12-18T07:50:08;-1.90;99.90
4183;DHT22;2105;52.300;9.182;2022-12-18T07:52:35;-1.80;99.90
4183;DHT22;2105;52.300;9.182;2022-12-18T07:55:02;-1.70;99.90
4183;DHT22;2105;52.300;9.182;2022-12-18T07:57:30;-1.70;99.90
4183;DHT22;2105;52.300;9.182;2022-12-18T07:59:57;-1.60;99.90
4183;DHT22;2105;52.300;9.182;2022-12-18T08:02:23;-1.50;99.90
4183;DHT22;2105;52.300;9.182;2022-12-18T08:04:50;-1.30;99.90
4183;DHT22;2105;52.300;9.182;2022-12-18T08:07:17;-0.70;1.00
4183;DHT22;2105;52.300;9.182;2022-12-18T08:09:43;-0.40;1.00
4183;DHT22;2105;52.300;9.182;2022-12-18T08:12:10;-0.10;1.00
4183;DHT22;2105;52.300;9.182;2022-12-18T08:14:38;-0.10;1.00
4183;DHT22;2105;52.300;9.182;2022-12-18T08:17:05;0.00;1.00
4183;DHT22;2105;52.300;9.182;2022-12-18T08:19:32;-0.40;1.00
4183;DHT22;2105;52.300;9.182;2022-12-18T08:21:58;-0.60;1.00
4183;DHT22;2105;52.300;9.182;2022-12-18T08:24:25;-0.70;1.00
4183;DHT22;2105;52.300;9.182;2022-12-18T08:26:52;-0.60;1.00
4183;DHT22;2105;52.300;9.182;2022-12-18T08:29:19;-0.60;1.00
4183;DHT22;2105;52.300;9.182;2022-12-18T08:31:47;-0.60;1.00
4183;DHT22;2105;52.300;9.182;2022-12-18T08:34:14;-0.50;1.00
4183;DHT22;2105;52.300;9.182;2022-12-18T08:36:40;-0.30;1.00
4183;DHT22;2105;52.300;9.182;2022-12-18T08:39:07;-0.20;1.00
4183;DHT22;2105;52.300;9.182;2022-12-18T08:41:34;-0.20;99.90
4183;DHT22;2105;52.300;9.182;2022-12-18T08:44:01;-0.20;99.90
4183;DHT22;2105;52.300;9.182;2022-12-18T08:46:46;-0.20;99.90
4183;DHT22;2105;52.300;9.182;2022-12-18T08:49:13;-0.20;99.90
4183;DHT22;2105;52.300;9.182;2022-12-18T08:51:40;-0.30;99.90
4183;DHT22;2105;52.300;9.182;2022-12-18T08:54:07;-0.30;99.90
4183;DHT22;2105;52.300;9.182;2022-12-18T08:56:33;-0.10;99.90
4183;DHT22;2105;52.300;9.182;2022-12-18T08:59:00;-0.10;99.90
4183;DHT22;2105;52.300;9.182;2022-12-18T09:01:27;-0.20;99.90
4183;DHT22;2105;52.300;9.182;2022-12-18T09:03:55;-0.20;99.90
4183;DHT22;2105;52.300;9.182;2022-12-18T09:06:23;-0.20;99.90
4183;DHT22;2105;52.300;9.182;2022-12-18T09:08:51;-0.20;99.90
4183;DHT22;2105;52.300;9.182;2022-12-18T09:11:21;-0.10;99.90
4183;DHT22;2105;52.300;9.182;2022-12-18T09:13:48;0.00;99.90
4183;DHT22;2105;52.300;9.182;2022-12-18T09:16:15;0.00;99.90
4183;DHT22;2105;52.300;9.182;2022-12-18T09:18:42;0.10;99.90
4183;DHT22;2105;52.300;9.182;2022-12-18T09:21:13;0.10;99.90
4183;DHT22;2105;52.300;9.182;2022-12-18T09:23:40;0.00;99.90
4183;DHT22;2105;52.300;9.182;2022-12-18T09:26:07;0.10;99.90
4183;DHT22;2105;52.300;9.182;2022-12-18T09:28:34;0.20;99.90
4183;DHT22;2105;52.300;9.182;2022-12-18T09:31:04;0.30;99.90
4183;DHT22;2105;52.300;9.182;2022-12-18T09:33:31;0.30;99.90
4183;DHT22;2105;52.300;9.182;2022-12-18T09:36:01;0.40;77.70
4183;DHT22;2105;52.300;9.182;2022-12-18T09:38:30;0.30;91.80
4183;DHT22;2105;52.300;9.182;2022-12-18T09:41:00;0.30;99.90
4183;DHT22;2105;52.300;9.182;2022-12-18T09:43:43;0.20;99.90
4183;DHT22;2105;52.300;9.182;2022-12-18T09:46:17;0.20;99.90
4183;DHT22;2105;52.300;9.182;2022-12-18T09:48:49;0.10;99.90
4183;DHT22;2105;52.300;9.182;2022-12-18T09:51:20;0.10;99.90
4183;DHT22;2105;52.300;9.182;2022-12-18T09:53:55;0.00;99.90
4183;DHT22;2105;52.300;9.182;2022-12-18T09:56:22;0.10;99.90
4183;DHT22;2105;52.300;9.182;2022-12-18T09:58:53;0.00;99.90
4183;DHT22;2105;52.300;9.182;2022-12-18T10:01:22;0.00;99.90
4183;DHT22;2105;52.300;9.182;2022-12-18T10:03:50;0.00;99.90
4183;DHT22;2105;52.300;9.182;2022-12-18T10:06:20;0.00;99.90
4183;DHT22;2105;52.300;9.182;2022-12-18T10:08:58;0.00;99.90
4183;DHT22;2105;52.300;9.182;2022-12-18T10:11:37;0.10;99.90
4183;DHT22;2105;52.300;9.182;2022-12-18T10:14:13;0.00;99.90
4183;DHT22;2105;52.300;9.182;2022-12-18T10:16:50;0.10;99.90
4183;DHT22;2105;52.300;9.182;2022-12-18T10:19:36;0.10;99.90
4183;DHT22;2105;52.300;9.182;2022-12-18T10:22:14;0.10;99.90
4183;DHT22;2105;52.300;9.182;2022-12-18T10:24:49;0.10;99.90
4183;DHT22;2105;52.300;9.182;2022-12-18T10:27:23;0.20;99.90
4183;DHT22;2105;52.300;9.182;2022-12-18T10:29:50;0.20;99.90
4183;DHT22;2105;52.300;9.182;2022-12-18T10:32:19;0.20;99.90
4183;DHT22;2105;52.300;9.182;2022-12-18T10:34:46;0.20;99.90
4183;DHT22;2105;52.300;9.182;2022-12-18T10:37:16;0.20;99.90
4183;DHT22;2105;52.300;9.182;2022-12-18T10:39:45;0.20;99.90
4183;DHT22;2105;52.300;9.182;2022-12-18T10:42:17;0.40;97.10
4183;DHT22;2105;52.300;9.182;2022-12-18T10:44:45;0.60;99.90
4183;DHT22;2105;52.300;9.182;2022-12-18T10:47:15;0.60;99.90
4183;DHT22;2105;52.300;9.182;2022-12-18T10:49:49;0.60;96.90
4183;DHT22;2105;52.300;9.182;2022-12-18T10:52:18;0.70;16.00
4183;DHT22;2105;52.300;9.182;2022-12-18T10:54:51;0.70;56.40
4183;DHT22;2105;52.300;9.182;2022-12-18T10:57:32;0.80;85.80
4183;DHT22;2105;52.300;9.182;2022-12-18T11:02:55;1.10;1.00
4183;DHT22;2105;52.300;9.182;2022-12-18T11:05:26;1.10;1.00
4183;DHT22;2105;52.300;9.182;2022-12-18T11:07:53;1.10;1.00
4183;DHT22;2105;52.300;9.182;2022-12-18T11:10:25;1.20;1.00
4183;DHT22;2105;52.300;9.182;2022-12-18T11:12:52;1.30;1.00
4183;DHT22;2105;52.300;9.182;2022-12-18T11:15:21;1.30;1.00
4183;DHT22;2105;52.300;9.182;2022-12-18T11:17:50;1.40;1.00
4183;DHT22;2105;52.300;9.182;2022-12-18T11:20:27;1.50;1.00
4183;DHT22;2105;52.300;9.182;2022-12-18T11:22:58;1.80;1.00
4183;DHT22;2105;52.300;9.182;2022-12-18T11:25:27;2.00;1.00
4183;DHT22;2105;52.300;9.182;2022-12-18T11:27:56;2.20;1.00
4183;DHT22;2105;52.300;9.182;2022-12-18T11:30:26;2.20;1.00
4183;DHT22;2105;52.300;9.182;2022-12-18T11:32:56;2.20;1.00
4183;DHT22;2105;52.300;9.182;2022-12-18T11:35:36;2.10;1.00
4183;DHT22;2105;52.300;9.182;2022-12-18T11:38:10;2.10;1.00
4183;DHT22;2105;52.300;9.182;2022-12-18T11:40:42;2.20;1.00
4183;DHT22;2105;52.300;9.182;2022-12-18T11:43:14;2.30;1.00
4183;DHT22;2105;52.300;9.182;2022-12-18T11:45:48;2.50;1.00
4183;DHT22;2105;52.300;9.182;2022-12-18T11:48:18;2.60;1.00
4183;DHT22;2105;52.300;9.182;2022-12-18T11:50:49;2.80;1.00
4183;DHT22;2105;52.300;9.182;2022-12-18T11:53:17;2.90;1.00
4183;DHT22;2105;52.300;9.182;2022-12-18T11:55:54;2.80;1.00
4183;DHT22;2105;52.300;9.182;2022-12-18T11:58:34;2.60;1.00
4183;DHT22;2105;52.300;9.182;2022-12-18T12:01:16;2.30;1.00
4183;DHT22;2105;52.300;9.182;2022-12-18T12:04:00;2.10;1.00
4183;DHT22;2105;52.300;9.182;2022-12-18T12:06:37;1.90;1.00
4183;DHT22;2105;52.300;9.182;2022-12-18T12:09:10;1.70;1.00
4183;DHT22;2105;52.300;9.182;2022-12-18T12:11:47;1.50;1.00
4183;DHT22;2105;52.300;9.182;2022-12-18T12:14:27;1.50;1.00
4183;DHT22;2105;52.300;9.182;2022-12-18T12:17:01;1.50;1.00
4183;DHT22;2105;52.300;9.182;2022-12-18T12:19:38;1.40;1.00
4183;DHT22;2105;52.300;9.182;2022-12-18T12:22:16;1.30;1.00
4183;DHT22;2105;52.300;9.182;2022-12-18T12:24:53;1.10;1.00
4183;DHT22;2105;52.300;9.182;2022-12-18T12:27:33;1.10;1.00
4183;DHT22;2105;52.300;9.182;2022-12-18T12:30:06;1.00;37.70
4183;DHT22;2105;52.300;9.182;2022-12-18T12:32:58;0.90;77.30
4183;DHT22;2105;52.300;9.182;2022-12-18T12:35:35;0.90;99.90
4183;DHT22;2105;52.300;9.182;2022-12-18T12:38:09;0.90;99.90
4183;DHT22;2105;52.300;9.182;2022-12-18T12:40:41;0.90;99.90
4183;DHT22;2105;52.300;9.182;2022-12-18T12:43:21;0.90;99.90
4183;DHT22;2105;52.300;9.182;2022-12-18T12:45:50;0.90;99.90
4183;DHT22;2105;52.300;9.182;2022-12-18T12:48:30;0.90;99.90
4183;DHT22;2105;52.300;9.182;2022-12-18T12:51:00;1.00;74.40
4183;DHT22;2105;52.300;9.182;2022-12-18T12:53:32;1.10;99.90
4183;DHT22;2105;52.300;9.182;2022-12-18T12:56:01;1.20;99.90
4183;DHT22;2105;52.300;9.182;2022-12-18T12:58:37;1.10;99.90
4183;DHT22;2105;52.300;9.182;2022-12-18T13:01:12;1.10;99.90
4183;DHT22;2105;52.300;9.182;2022-12-18T13:03:46;1.10;99.90
4183;DHT22;2105;52.300;9.182;2022-12-18T13:06:22;1.20;99.90
4183;DHT22;2105;52.300;9.182;2022-12-18T13:08:55;1.20;99.90
4183;DHT22;2105;52.300;9.182;2022-12-18T13:11:35;1.30;99.90
4183;DHT22;2105;52.300;9.182;2022-12-18T13:14:24;1.30;99.90
4183;DHT22;2105;52.300;9.182;2022-12-18T13:17:21;1.30;99.90
4183;DHT22;2105;52.300;9.182;2022-12-18T13:19:52;1.40;71.10
4183;DHT22;2105;52.300;9.182;2022-12-18T13:22:21;1.50;52.80
4183;DHT22;2105;52.300;9.182;2022-12-18T13:24:48;1.40;15.70
4183;DHT22;2105;52.300;9.182;2022-12-18T13:27:46;1.40;3.10
4183;DHT22;2105;52.300;9.182;2022-12-18T13:33:40;1.30;3.30
4183;DHT22;2105;52.300;9.182;2022-12-18T13:36:16;1.20;45.20
4183;DHT22;2105;52.300;9.182;2022-12-18T13:39:10;1.20;46.10
4183;DHT22;2105;52.300;9.182;2022-12-18T13:41:37;1.20;32.60
4183;DHT22;2105;52.300;9.182;2022-12-18T13:44:11;1.20;23.50
4183;DHT22;2105;52.300;9.182;2022-12-18T13:46:43;1.10;1.00
4183;DHT22;2105;52.300;9.182;2022-12-18T13:49:21;1.20;1.00
4183;DHT22;2105;52.300;9.182;2022-12-18T13:51:50;1.20;1.00
4183;DHT22;2105;52.300;9.182;2022-12-18T13:54:19;1.20;1.00
4183;DHT22;2105;52.300;9.182;2022-12-18T13:56:48;1.30;1.00
4183;DHT22;2105;52.300;9.182;2022-12-18T13:59:18;1.30;1.00
4183;DHT22;2105;52.300;9.182;2022-12-18T14:01:47;1.20;1.00
4183;DHT22;2105;52.300;9.182;2022-12-18T14:04:26;1.20;1.00
4183;DHT22;2105;52.300;9.182;2022-12-18T14:06:57;1.10;14.60
4183;DHT22;2105;52.300;9.182;2022-12-18T14:09:27;1.00;73.70
4183;DHT22;2105;52.300;9.182;2022-12-18T14:11:55;0.90;99.90
4183;DHT22;2105;52.300;9.182;2022-12-18T14:14:46;0.80;99.90
4183;DHT22;2105;52.300;9.182;2022-12-18T14:17:14;0.80;99.90
4183;DHT22;2105;52.300;9.182;2022-12-18T14:19:44;0.80;99.90
4183;DHT22;2105;52.300;9.182;2022-12-18T14:22:17;0.90;93.50
4183;DHT22;2105;52.300;9.182;2022-12-18T14:24:44;0.80;99.90
4183;DHT22;2105;52.300;9.182;2022-12-18T14:27:23;0.80;99.90
4183;DHT22;2105;52.300;9.182;2022-12-18T14:29:50;0.80;99.90
4183;DHT22;2105;52.300;9.182;2022-12-18T14:32:18;0.80;99.90
4183;DHT22;2105;52.300;9.182;2022-12-18T14:34:48;0.80;99.90
4183;DHT22;2105;52.300;9.182;2022-12-18T14:37:17;0.80;99.90
4183;DHT22;2105;52.300;9.182;2022-12-18T14:39:54;0.80;99.90
4183;DHT22;2105;52.300;9.182;2022-12-18T14:42:22;0.60;99.90
4183;DHT22;2105;52.300;9.182;2022-12-18T14:44:48;0.60;63.60
4183;DHT22;2105;52.300;9.182;2022-12-18T14:47:16;0.60;78.70
4183;DHT22;2105;52.300;9.182;2022-12-18T14:49:43;0.60;84.90
4183;DHT22;2105;52.300;9.182;2022-12-18T14:52:21;0.60;89.30
4183;DHT22;2105;52.300;9.182;2022-12-18T14:54:49;0.70;21.90
4183;DHT22;2105;52.300;9.182;2022-12-18T14:57:21;0.70;17.10
4183;DHT22;2105;52.300;9.182;2022-12-18T14:59:48;0.80;1.00
4183;DHT22;2105;52.300;9.182;2022-12-18T15:02:19;0.80;1.00
4183;DHT22;2105;52.300;9.182;2022-12-18T15:04:48;0.90;1.00
4183;DHT22;2105;52.300;9.182;2022-12-18T15:07:27;1.00;1.00
4183;DHT22;2105;52.300;9.182;2022-12-18T15:10:12;1.00;1.00
4183;DHT22;2105;52.300;9.182;2022-12-18T15:12:42;1.00;1.00
4183;DHT22;2105;52.300;9.182;2022-12-18T15:15:45;1.00;1.00
4183;DHT22;2105;52.300;9.182;2022-12-18T15:18:15;1.00;1.00
4183;DHT22;2105;52.300;9.182;2022-12-18T15:20:44;1.00;1.00
4183;DHT22;2105;52.300;9.182;2022-12-18T15:23:17;1.00;1.00
4183;DHT22;2105;52.300;9.182;2022-12-18T15:25:45;1.00;1.00
4183;DHT22;2105;52.300;9.182;2022-12-18T15:28:23;0.90;1.00
4183;DHT22;2105;52.300;9.182;2022-12-18T15:31:17;0.90;1.00
4183;DHT22;2105;52.300;9.182;2022-12-18T15:34:04;1.00;1.00
4183;DHT22;2105;52.300;9.182;2022-12-18T15:36:32;0.90;1.00
4183;DHT22;2105;52.300;9.182;2022-12-18T15:39:03;1.00;1.00
4183;DHT22;2105;52.300;9.182;2022-12-18T15:41:31;1.00;1.00
4183;DHT22;2105;52.300;9.182;2022-12-18T15:43:59;1.00;1.00
4183;DHT22;2105;52.300;9.182;2022-12-18T15:46:25;1.00;1.00
4183;DHT22;2105;52.300;9.182;2022-12-18T15:48:54;0.90;1.00
4183;DHT22;2105;52.300;9.182;2022-12-18T15:51:22;0.90;1.00
4183;DHT22;2105;52.300;9.182;2022-12-18T15:53:52;0.90;1.00
4183;DHT22;2105;52.300;9.182;2022-12-18T15:56:22;0.90;1.00
4183;DHT22;2105;52.300;9.182;2022-12-18T15:59:10;0.90;1.00
4183;DHT22;2105;52.300;9.182;2022-12-18T16:01:38;1.10;1.00
4183;DHT22;2105;52.300;9.182;2022-12-18T16:04:06;1.20;1.00
4183;DHT22;2105;52.300;9.182;2022-12-18T16:06:32;1.30;1.00
4183;DHT22;2105;52.300;9.182;2022-12-18T16:08:59;1.30;1.00
4183;DHT22;2105;52.300;9.182;2022-12-18T16:11:29;1.20;1.00
4183;DHT22;2105;52.300;9.182;2022-12-18T16:14:11;1.20;1.00
4183;DHT22;2105;52.300;9.182;2022-12-18T16:16:40;1.20;1.00
4183;DHT22;2105;52.300;9.182;2022-12-18T16:19:07;1.30;1.00
4183;DHT22;2105;52.300;9.182;2022-12-18T16:21:34;1.30;1.00
4183;DHT22;2105;52.300;9.182;2022-12-18T16:24:00;1.30;1.00
4183;DHT22;2105;52.300;9.182;2022-12-18T16:26:28;1.30;1.00
4183;DHT22;2105;52.300;9.182;2022-12-18T16:28:55;1.30;1.00
4183;DHT22;2105;52.300;9.182;2022-12-18T16:31:22;1.20;1.00
4183;DHT22;2105;52.300;9.182;2022-12-18T16:33:49;1.20;1.00
4183;DHT22;2105;52.300;9.182;2022-12-18T16:36:15;1.20;1.00
4183;DHT22;2105;52.300;9.182;2022-12-18T16:38:42;1.20;1.00
4183;DHT22;2105;52.300;9.182;2022-12-18T16:41:18;1.30;1.00
4183;DHT22;2105;52.300;9.182;2022-12-18T16:43:58;1.30;1.00
4183;DHT22;2105;52.300;9.182;2022-12-18T16:46:25;1.30;1.00